Time;durP1;ratioP1;P1;durP2;ratioP2;P2;SDS_P1;SDS_P2;PMS_P1;PMS_P2;Temp;Humidity;BMP_temperature;BMP_pressure;BME280_temperature;BME280_humidity;BME280_pressure;Samples;Min_cycle;Max_cycle;Signal;HPM_P1;HPM_P2
2024/02/21 00:00:00;;;;;;;15.20;8.02;;;;;;;-6.11;77.69;100886.16;5004898;28;20099;-67
2024/02/21 00:02:26;;;;;;;14.93;8.45;;;;;;;-6.28;78.07;100870.56;4992719;28;20037;-68
2024/02/21 00:04:52;;;;;;;14.32;8.27;;;;;;;-6.26;77.86;100870.69;5000484;28;20121;-67
2024/02/21 00:07:18;;;;;;;15.43;8.25;;;;;;;-6.23;78.03;100884.47;5020083;28;20076;-68
2024/02/21 00:09:44;;;;;;;16.52;7.47;;;;;;;-6.28;77.76;100885.78;5022019;28;20049;-70
2024/02/21 00:12:10;;;;;;;13.20;8.07;;;;;;;-6.32;78.07;100878.69;5022710;28;20100;-69
2024/02/21 00:14:36;;;;;;;17.30;8.43;;;;;;;-6.31;78.88;100850.06;5023343;28;20042;-68
2024/02/21 00:17:03;;;;;;;16.40;8.25;;;;;;;-6.36;78.51;100841.22;5030627;28;20042;-69
2024/02/21 00:19:29;;;;;;;14.57;8.15;;;;;;;-6.10;78.56;100876.16;5018245;28;20045;-69
2024/02/21 00:21:55;;;;;;;15.52;8.57;;;;;;;-6.11;78.69;100851.59;5024172;28;20099;-69
2024/02/21 00:24:21;;;;;;;15.70;7.65;;;;;;;-6.19;78.51;100844.19;5018202;28;20041;-68
2024/02/21 00:26:47;;;;;;;16.42;7.78;;;;;;;-6.05;78.56;100871.44;5021351;28;20463;-67
2024/02/21 00:29:13;;;;;;;14.88;8.05;;;;;;;-5.87;79.34;100871.00;5023167;28;20077;-68
2024/02/21 00:31:44;;;;;;;13.40;7.43;;;;;;;-5.94;79.27;100842.63;5006833;28;20809;-69
2024/02/21 00:34:11;;;;;;;15.25;7.63;;;;;;;-6.16;78.52;100819.94;5026245;28;20045;-68
2024/02/21 00:36:37;;;;;;;18.88;7.57;;;;;;;-5.91;78.84;100854.69;5026325;28;20507;-68
2024/02/21 00:39:03;;;;;;;14.38;7.80;;;;;;;-5.85;78.66;100849.19;5009154;28;20049;-67
2024/02/21 00:41:29;;;;;;;14.45;7.22;;;;;;;-5.71;78.71;100857.81;5004672;28;20049;-68
2024/02/21 00:43:54;;;;;;;15.15;8.02;;;;;;;-5.84;79.22;100834.06;5016511;28;20106;-68
2024/02/21 00:46:20;;;;;;;15.02;8.40;;;;;;;-5.84;79.18;100812.91;5023058;28;20087;-67
2024/02/21 00:48:46;;;;;;;17.27;7.95;;;;;;;-5.44;79.04;100866.53;5010265;28;20072;-68
2024/02/21 00:51:12;;;;;;;12.52;7.10;;;;;;;-5.46;78.61;100857.94;5005582;28;20573;-67
2024/02/21 00:53:38;;;;;;;13.77;7.82;;;;;;;-5.58;78.57;100845.22;5007632;28;20061;-68
2024/02/21 00:56:05;;;;;;;14.35;7.65;;;;;;;-5.72;79.01;100823.94;5009811;28;20072;-69
2024/02/21 00:58:32;;;;;;;16.60;7.60;;;;;;;-5.42;79.56;100837.09;5010343;28;20120;-69
2024/02/21 01:00:58;;;;;;;13.35;7.07;;;;;;;-5.32;79.28;100836.09;5020156;28;20143;-69
2024/02/21 01:03:24;;;;;;;14.43;7.32;;;;;;;-5.46;78.61;100836.00;5024309;28;20105;-68
2024/02/21 01:05:50;;;;;;;15.10;8.10;;;;;;;-5.60;78.75;100827.38;5030780;28;20091;-67
2024/02/21 01:08:16;;;;;;;12.60;7.03;;;;;;;-5.40;79.84;100835.53;5008247;28;20056;-68
2024/02/21 01:10:44;;;;;;;13.82;7.47;;;;;;;-5.31;79.72;100815.00;5019332;28;20045;-68
2024/02/21 01:13:10;;;;;;;12.13;7.03;;;;;;;-5.22;79.25;100818.22;5022159;28;20136;-68
2024/02/21 01:15:36;;;;;;;11.50;6.80;;;;;;;-5.19;79.65;100810.81;5025515;28;20099;-69
2024/02/21 01:18:03;;;;;;;16.40;7.22;;;;;;;-5.16;79.32;100826.25;5021573;28;20634;-68
2024/02/21 01:20:29;;;;;;;13.13;6.65;;;;;;;-5.24;79.16;100804.53;5022011;28;20045;-69
2024/02/21 01:22:55;;;;;;;11.65;6.70;;;;;;;-5.15;78.79;100830.56;5009492;28;20473;-68
2024/02/21 01:25:21;;;;;;;14.75;7.40;;;;;;;-5.32;79.30;100803.09;5025851;28;20129;-67
2024/02/21 01:27:47;;;;;;;13.23;6.80;;;;;;;-5.27;78.74;100811.94;5018425;28;20522;-68
2024/02/21 01:30:13;;;;;;;13.55;7.50;;;;;;;-5.27;79.25;100804.31;5032201;28;20132;-68
2024/02/21 01:32:39;;;;;;;15.70;7.65;;;;;;;-5.12;78.86;100824.81;5022308;28;20055;-68
2024/02/21 01:35:05;;;;;;;13.60;7.25;;;;;;;-5.21;79.50;100814.91;5026264;28;20045;-68
2024/02/21 01:37:31;;;;;;;15.45;7.30;;;;;;;-5.29;79.12;100800.78;5025010;28;20045;-68
2024/02/21 01:39:57;;;;;;;13.77;7.38;;;;;;;-5.37;78.80;100805.31;5026831;28;20055;-70
2024/02/21 01:42:23;;;;;;;15.50;6.93;;;;;;;-5.55;78.81;100784.56;5023799;28;20042;-68
2024/02/21 01:44:49;;;;;;;13.88;6.75;;;;;;;-5.74;78.54;100762.09;5023523;28;20416;-68
2024/02/21 01:47:16;;;;;;;13.98;7.72;;;;;;;-5.85;78.94;100737.59;5029014;28;20140;-69
2024/02/21 01:49:42;;;;;;;13.18;6.72;;;;;;;-5.60;78.60;100763.97;5025921;28;20041;-67
2024/02/21 01:52:10;;;;;;;14.27;7.00;;;;;;;-5.39;78.77;100806.84;5021962;28;20112;-69
2024/02/21 01:54:36;;;;;;;14.20;6.93;;;;;;;-5.60;78.99;100775.75;5017654;28;20045;-68
2024/02/21 01:57:03;;;;;;;13.32;6.85;;;;;;;-5.36;79.61;100790.97;5027888;28;20041;-69
2024/02/21 01:59:29;;;;;;;12.98;6.93;;;;;;;-5.39;79.53;100763.72;5019353;28;20041;-69
2024/02/21 02:01:56;;;;;;;14.38;6.95;;;;;;;-5.34;79.56;100766.56;5028939;28;20487;-68
2024/02/21 02:04:24;;;;;;;16.02;7.45;;;;;;;-5.37;79.96;100758.75;5020239;28;20041;-69
2024/02/21 02:06:52;;;;;;;12.52;6.63;;;;;;;-5.36;79.20;100760.50;5027654;28;20094;-68
2024/02/21 02:09:18;;;;;;;15.55;6.97;;;;;;;-5.58;79.88;100703.19;5026648;28;20037;-69
2024/02/21 02:11:44;;;;;;;14.13;6.82;;;;;;;-5.09;79.62;100791.16;4995169;28;20057;-68
2024/02/21 02:14:10;;;;;;;14.27;7.28;;;;;;;-5.06;79.92;100788.81;5024876;28;20056;-68
2024/02/21 02:16:37;;;;;;;11.95;6.93;;;;;;;-5.31;79.44;100754.09;5028824;28;20593;-70
2024/02/21 02:19:03;;;;;;;17.80;7.15;;;;;;;-5.23;79.50;100773.31;5025657;28;20041;-68
2024/02/21 02:21:32;;;;;;;13.77;6.93;;;;;;;-5.14;79.92;100773.06;5038644;28;20041;-70
2024/02/21 02:23:59;;;;;;;13.50;7.10;;;;;;;-5.04;79.45;100783.06;5014554;28;20039;-68
2024/02/21 02:26:27;;;;;;;15.80;7.05;;;;;;;-5.13;79.75;100769.75;5020372;28;20115;-69
2024/02/21 02:28:53;;;;;;;13.90;7.40;;;;;;;-5.04;80.23;100779.66;5025677;28;20041;-68
2024/02/21 02:31:19;;;;;;;14.50;7.03;;;;;;;-5.19;79.51;100751.56;5017660;28;20115;-68
2024/02/21 02:33:45;;;;;;;12.77;6.70;;;;;;;-5.01;79.65;100775.66;5024157;28;20471;-69
2024/02/21 02:36:11;;;;;;;12.73;6.85;;;;;;;-4.86;79.91;100783.47;5024825;28;20065;-67
2024/02/21 02:38:37;;;;;;;15.23;7.38;;;;;;;-4.85;80.00;100767.47;5024903;28;20099;-69
2024/02/21 02:41:03;;;;;;;12.65;7.32;;;;;;;-4.79;79.92;100777.16;4993974;28;20520;-67
2024/02/21 02:43:29;;;;;;;13.30;7.07;;;;;;;-4.76;80.18;100756.19;5023416;28;20152;-69
2024/02/21 02:45:55;;;;;;;12.65;7.50;;;;;;;-4.51;80.41;100788.28;5008723;28;21491;-67
2024/02/21 02:48:21;;;;;;;12.07;6.50;;;;;;;-4.50;79.46;100790.06;5056969;28;20069;-69
2024/02/21 02:50:49;;;;;;;13.85;6.57;;;;;;;-4.76;79.27;100772.28;5024598;28;20403;-70
2024/02/21 02:53:15;;;;;;;14.25;6.95;;;;;;;-4.82;79.62;100760.84;5017414;28;20099;-67
2024/02/21 02:55:41;;;;;;;13.63;6.85;;;;;;;-4.92;79.31;100765.25;5012607;28;20037;-67
2024/02/21 02:58:08;;;;;;;13.75;8.07;;;;;;;-4.84;79.75;100792.09;5035221;28;20049;-68
2024/02/21 03:00:39;;;;;;;15.07;7.68;;;;;;;-4.85;79.48;100786.88;5019502;28;20037;-69
2024/02/21 03:03:05;;;;;;;11.30;6.43;;;;;;;-4.97;79.80;100768.28;5011238;28;20041;-67
2024/02/21 03:05:31;;;;;;;13.43;7.32;;;;;;;-4.81;79.85;100768.53;5024913;28;20044;-67
2024/02/21 03:07:58;;;;;;;13.48;7.20;;;;;;;-4.68;79.93;100790.59;5019459;28;20113;-67
2024/02/21 03:10:24;;;;;;;13.65;7.05;;;;;;;-4.77;79.29;100792.50;5022508;28;20116;-67
2024/02/21 03:12:53;;;;;;;16.33;7.15;;;;;;;-4.84;79.69;100787.00;5023106;28;20052;-67
2024/02/21 03:15:19;;;;;;;14.55;7.00;;;;;;;-4.86;79.71;100780.94;5026324;28;20045;-66
2024/02/21 03:17:45;;;;;;;13.30;7.03;;;;;;;-4.88;79.39;100774.88;5024135;28;20152;-69
2024/02/21 03:20:12;;;;;;;15.75;8.05;;;;;;;-4.86;79.54;100772.44;5025326;28;20488;-65
2024/02/21 03:22:38;;;;;;;14.73;7.18;;;;;;;-4.79;80.26;100769.53;5022693;28;20045;-68
2024/02/21 03:25:06;;;;;;;16.40;7.47;;;;;;;-4.72;80.27;100765.75;5008942;28;20129;-66
2024/02/21 03:27:38;;;;;;;14.63;7.88;;;;;;;-4.56;80.21;100773.66;5054358;28;20106;-66
2024/02/21 03:30:06;;;;;;;15.70;7.78;;;;;;;-4.52;80.13;100771.31;5022160;28;20045;-67
2024/02/21 03:32:33;;;;;;;11.98;6.57;;;;;;;-4.62;78.85;100765.59;5024513;28;20042;-66
2024/02/21 03:35:00;;;;;;;16.10;8.20;;;;;;;-4.75;79.58;100757.94;5022328;28;20037;-64
2024/02/21 03:37:26;;;;;;;13.57;7.13;;;;;;;-4.78;79.43;100750.13;5017502;28;20130;-64
2024/02/21 03:39:52;;;;;;;13.93;7.22;;;;;;;-4.56;80.21;100765.13;5008560;28;20048;-66
2024/02/21 03:42:18;;;;;;;13.45;7.03;;;;;;;-4.63;80.50;100733.34;5009796;28;20045;-66
2024/02/21 03:44:44;;;;;;;12.32;6.82;;;;;;;-4.47;80.15;100768.31;5024713;28;20057;-69
2024/02/21 03:47:11;;;;;;;9.88;6.40;;;;;;;-4.51;79.65;100767.97;5017967;28;20053;-65
2024/02/21 03:49:38;;;;;;;12.80;6.82;;;;;;;-4.52;79.50;100756.06;5025115;28;20041;-66
2024/02/21 03:52:04;;;;;;;17.58;7.45;;;;;;;-4.63;79.72;100748.59;5025222;28;20073;-66
2024/02/21 03:54:30;;;;;;;13.85;6.90;;;;;;;-4.64;80.28;100738.34;5031976;28;20069;-67
2024/02/21 03:56:56;;;;;;;13.98;7.50;;;;;;;-4.57;80.32;100738.84;5023953;28;20508;-68
2024/02/21 03:59:26;;;;;;;15.60;8.23;;;;;;;-4.48;79.92;100770.72;5026522;28;20049;-67
2024/02/21 04:01:54;;;;;;;;;;;;;;;-4.45;79.71;100778.56;5055388;28;20061;-67
2024/02/21 04:04:20;;;;;;;21.38;7.53;;;;;;;-4.52;79.96;100781.47;5022485;28;19917;-67
2024/02/21 04:06:51;;;;;;;13.18;6.95;;;;;;;-4.64;80.24;100751.91;5022405;28;20049;-65
2024/02/21 04:09:20;;;;;;;14.23;7.32;;;;;;;-4.62;80.17;100754.53;5009670;28;20041;-66
2024/02/21 04:11:46;;;;;;;13.82;7.50;;;;;;;-4.39;80.52;100777.31;5023971;28;20045;-68
2024/02/21 04:14:12;;;;;;;13.13;7.03;;;;;;;-4.49;79.75;100766.41;5001595;28;20041;-68
2024/02/21 04:16:38;;;;;;;14.38;7.50;;;;;;;-4.43;80.54;100774.47;4989382;28;20064;-67
2024/02/21 04:19:05;;;;;;;14.48;7.32;;;;;;;-4.51;80.01;100752.72;5025742;28;20072;-68
2024/02/21 04:21:31;;;;;;;16.30;7.50;;;;;;;-4.46;80.11;100751.38;5008465;28;20095;-66
2024/02/21 04:23:57;;;;;;;13.93;7.03;;;;;;;-4.40;79.90;100772.13;5021995;28;20045;-67
2024/02/21 04:26:23;;;;;;;16.40;7.93;;;;;;;-4.47;80.27;100760.69;4993444;28;20539;-67
2024/02/21 04:28:49;;;;;;;12.52;7.30;;;;;;;-4.75;80.00;100720.72;5017810;28;20049;-67
2024/02/21 04:31:15;;;;;;;16.80;7.90;;;;;;;-4.62;80.17;100745.28;5017030;28;20095;-68
2024/02/21 04:33:41;;;;;;;15.25;7.60;;;;;;;-4.52;79.93;100774.72;5015947;28;20041;-66
2024/02/21 04:36:10;;;;;;;17.77;7.97;;;;;;;-4.57;80.06;100758.28;5020196;28;20045;-66
2024/02/21 04:38:36;;;;;;;16.23;7.88;;;;;;;-4.62;80.15;100752.00;5031720;28;20053;-65
2024/02/21 04:41:02;;;;;;;19.75;8.40;;;;;;;-4.46;80.62;100766.63;5023841;28;20156;-66
2024/02/21 04:43:29;;;;;;;16.13;7.10;;;;;;;-4.39;80.52;100767.13;5023693;28;20511;-66
2024/02/21 04:45:54;;;;;;;15.05;8.13;;;;;;;-4.35;80.10;100775.88;5009507;28;20068;-68
2024/02/21 04:48:21;;;;;;;13.77;7.95;;;;;;;-4.39;80.60;100768.81;5025032;28;20046;-67
2024/02/21 04:50:47;;;;;;;15.10;8.07;;;;;;;-4.32;79.69;100775.19;5035815;28;20377;-66
2024/02/21 04:53:13;;;;;;;18.60;8.02;;;;;;;-4.44;80.05;100763.44;5009145;28;20053;-65
2024/02/21 04:55:40;;;;;;;15.15;8.35;;;;;;;-4.30;80.60;100784.66;5030405;28;20050;-66
2024/02/21 04:58:07;;;;;;;16.90;8.75;;;;;;;-4.35;80.29;100775.88;5030473;28;20456;-71
2024/02/21 05:00:34;;;;;;;16.00;8.25;;;;;;;-4.32;80.45;100781.16;5020829;28;20037;-65
2024/02/21 05:03:00;;;;;;;16.10;8.20;;;;;;;-4.41;80.04;100765.28;5022354;28;20044;-65
2024/02/21 05:05:26;;;;;;;15.18;7.68;;;;;;;-4.44;80.27;100765.06;5013024;28;20037;-64
2024/02/21 05:07:52;;;;;;;12.82;7.07;;;;;;;-4.35;80.55;100780.94;5025411;28;20042;-67
2024/02/21 05:10:20;;;;;;;13.82;7.45;;;;;;;-4.32;80.45;100780.25;5012189;28;20061;-65
2024/02/21 05:12:46;;;;;;;14.43;7.53;;;;;;;-4.39;80.58;100763.72;5012357;28;20142;-67
2024/02/21 05:15:12;;;;;;;16.40;8.57;;;;;;;-4.18;80.78;100791.34;5025693;28;20504;-66
2024/02/21 05:17:38;;;;;;;14.45;7.72;;;;;;;-4.17;80.59;100786.34;5027350;28;20527;-65
2024/02/21 05:20:07;;;;;;;17.23;8.85;;;;;;;-4.35;80.58;100749.56;5011871;28;20357;-67
2024/02/21 05:22:34;;;;;;;18.33;9.23;;;;;;;-4.25;80.88;100762.09;5024212;28;20043;-68
2024/02/21 05:25:02;;;;;;;17.23;8.57;;;;;;;-4.06;80.56;100783.66;5035429;28;20045;-66
2024/02/21 05:27:29;;;;;;;17.15;7.82;;;;;;;-4.09;80.07;100777.59;5022086;28;20425;-66
2024/02/21 05:29:55;;;;;;;13.90;7.15;;;;;;;-4.02;80.85;100781.41;5027401;28;20132;-67
2024/02/21 05:32:21;;;;;;;15.27;7.85;;;;;;;-4.03;80.70;100769.47;5029628;28;20522;-65
2024/02/21 05:34:51;;;;;;;18.23;8.45;;;;;;;-3.99;80.59;100771.44;5034542;28;20050;-67
2024/02/21 05:37:18;;;;;;;14.82;7.57;;;;;;;-4.14;80.50;100761.13;5025071;28;20045;-65
2024/02/21 05:39:44;;;;;;;15.57;8.23;;;;;;;-4.11;80.68;100755.41;5042610;28;20052;-67
2024/02/21 05:42:10;;;;;;;13.05;8.00;;;;;;;-3.94;80.89;100766.66;5024717;28;20043;-66
2024/02/21 05:44:37;;;;;;;16.48;7.68;;;;;;;-3.87;80.27;100781.53;5025142;28;20042;-66
2024/02/21 05:47:03;;;;;;;16.83;7.82;;;;;;;-3.84;81.07;100781.72;4995941;28;21221;-64
2024/02/21 05:49:29;;;;;;;15.80;8.27;;;;;;;-3.87;80.88;100765.41;5023640;28;20053;-66
2024/02/21 05:51:56;;;;;;;20.10;9.50;;;;;;;-4.02;80.43;100755.13;5025450;28;21575;-68
2024/02/21 05:54:23;;;;;;;16.98;7.70;;;;;;;-3.97;80.44;100771.56;5021121;28;20411;-65
2024/02/21 05:56:52;;;;;;;16.60;8.40;;;;;;;-3.92;81.13;100775.25;5011986;28;20052;-64
2024/02/21 05:59:18;;;;;;;16.98;7.88;;;;;;;-3.84;80.64;100780.84;5025334;28;20136;-64
2024/02/21 06:01:44;;;;;;;17.80;8.27;;;;;;;-3.83;80.58;100775.88;5023764;28;20051;-63
2024/02/21 06:04:10;;;;;;;15.70;7.32;;;;;;;-3.89;80.46;100766.97;5026265;28;20041;-63
2024/02/21 06:06:36;;;;;;;15.15;8.52;;;;;;;-3.74;81.13;100767.03;5012804;28;20049;-65
2024/02/21 06:09:03;;;;;;;14.48;7.78;;;;;;;-3.65;80.76;100766.00;5040901;28;20103;-66
2024/02/21 06:11:29;;;;;;;13.73;7.82;;;;;;;-3.65;80.83;100758.38;5018822;28;20114;-63
2024/02/21 06:13:57;;;;;;;15.40;7.75;;;;;;;-3.54;80.87;100778.50;5024477;28;20128;-63
2024/02/21 06:16:23;;;;;;;17.70;7.65;;;;;;;-3.59;80.90;100777.34;5023001;28;20119;-64
2024/02/21 06:18:49;;;;;;;19.20;8.02;;;;;;;-3.63;81.06;100755.91;5006733;28;20091;-64
2024/02/21 06:21:16;;;;;;;16.90;7.30;;;;;;;-3.69;80.54;100748.78;5024108;28;20555;-63
2024/02/21 06:23:43;;;;;;;15.88;7.97;;;;;;;-3.44;80.79;100759.63;5019604;28;20566;-63
2024/02/21 06:26:08;;;;;;;15.98;7.55;;;;;;;-3.34;81.16;100752.66;5016974;28;20033;-62
2024/02/21 06:28:34;;;;;;;16.85;7.78;;;;;;;-3.05;81.43;100761.22;5015231;28;20455;-64
2024/02/21 06:31:00;;;;;;;16.75;7.75;;;;;;;-2.98;81.22;100769.25;5020889;28;20500;-63
2024/02/21 06:33:26;;;;;;;15.23;7.65;;;;;;;-3.15;80.71;100758.88;5008058;28;20096;-64
2024/02/21 06:35:53;;;;;;;15.80;7.18;;;;;;;-3.28;80.42;100749.59;5042037;28;20045;-64
2024/02/21 06:38:20;;;;;;;15.10;7.95;;;;;;;-3.27;80.74;100758.13;5007720;28;20049;-62
2024/02/21 06:40:49;;;;;;;13.50;7.55;;;;;;;-3.20;80.52;100783.19;5019146;28;20061;-64
2024/02/21 06:43:20;;;;;;;15.80;8.50;;;;;;;-3.29;81.22;100757.16;5019508;28;20048;-63
2024/02/21 06:45:50;;;;;;;14.05;8.05;;;;;;;-3.18;81.17;100756.13;5021188;28;20039;-64
2024/02/21 06:48:20;;;;;;;16.98;8.48;;;;;;;-3.01;81.03;100776.69;5022985;28;20041;-64
2024/02/21 06:50:48;;;;;;;14.00;6.97;;;;;;;-3.23;80.42;100748.22;5039756;28;20111;-62
2024/02/21 06:53:26;;;;;;;15.02;7.55;;;;;;;-3.09;81.06;100758.41;4993989;28;20145;-63
2024/02/21 06:55:52;;;;;;;16.45;7.50;;;;;;;-2.92;80.62;100788.34;5022557;28;20473;-63
2024/02/21 06:58:20;;;;;;;14.52;7.32;;;;;;;-2.99;80.84;100757.31;5019929;28;20041;-65
2024/02/21 07:00:48;;;;;;;14.52;7.32;;;;;;;-2.99;80.94;100770.03;5006618;28;20592;-63
2024/02/21 07:03:24;;;;;;;13.10;6.63;;;;;;;-2.74;81.54;100780.03;5031047;28;20046;-64
2024/02/21 07:06:15;;;;;;;13.73;7.25;;;;;;;-2.58;81.22;100781.84;5020166;28;20060;-62
2024/02/21 07:08:43;;;;;;;14.77;7.47;;;;;;;-2.69;80.86;100757.38;5019939;28;20069;-63
2024/02/21 07:11:09;;;;;;;13.20;7.55;;;;;;;-2.39;81.72;100767.66;5020491;28;20041;-65
2024/02/21 07:13:35;;;;;;;13.95;7.47;;;;;;;-2.70;80.75;100731.03;5019793;28;20042;-65
2024/02/21 07:16:02;;;;;;;17.17;7.97;;;;;;;-2.35;81.16;100765.34;5019881;28;20045;-65
2024/02/21 07:18:28;;;;;;;14.52;7.47;;;;;;;-2.47;81.40;100740.03;5036457;28;20465;-65
2024/02/21 07:20:56;;;;;;;13.30;7.00;;;;;;;-2.17;81.35;100765.56;5020964;28;20054;-65
2024/02/21 07:23:22;;;;;;;15.63;7.93;;;;;;;-2.21;80.72;100768.72;5001295;28;20045;-65
2024/02/21 07:26:01;;;;;;;14.68;7.32;;;;;;;-2.26;80.66;100765.00;5017954;28;20061;-65
2024/02/21 07:28:43;;;;;;;13.50;7.05;;;;;;;-2.11;80.76;100759.94;5015756;28;20042;-66
2024/02/21 07:31:24;;;;;;;15.20;7.22;;;;;;;-1.76;81.55;100761.03;5000309;28;20070;-64
2024/02/21 07:33:53;;;;;;;16.45;7.63;;;;;;;-1.64;81.37;100731.91;5017843;28;20500;-71
2024/02/21 07:36:32;;;;;;;13.48;7.10;;;;;;;-1.45;81.23;100733.81;5018934;28;20137;-66
2024/02/21 07:38:58;;;;;;;13.20;7.10;;;;;;;-1.47;80.99;100713.28;5030140;28;20164;-66
2024/02/21 07:41:26;;;;;;;16.02;7.70;;;;;;;-0.75;81.17;100751.13;4999755;28;20053;-68
2024/02/21 07:43:52;;;;;;;13.80;7.72;;;;;;;0.23;81.99;100746.63;5017022;28;20691;-65
2024/02/21 07:46:19;;;;;;;11.35;6.75;;;;;;;2.06;83.67;100744.44;5018011;28;20041;-67
2024/02/21 07:48:48;;;;;;;12.05;6.25;;;;;;;2.99;82.63;100747.13;5050046;28;20503;-71
2024/02/21 07:51:17;;;;;;;15.80;7.40;;;;;;;4.21;83.83;100714.38;5023403;28;20053;-70
2024/02/21 07:54:04;;;;;;;10.93;6.68;;;;;;;6.20;83.50;100730.19;5042116;28;20079;-68
2024/02/21 07:56:45;;;;;;;10.75;6.40;;;;;;;7.05;81.65;100765.72;5072541;28;20052;-69
2024/02/21 07:59:44;;;;;;;11.65;6.88;;;;;;;7.38;79.36;100734.44;5042395;28;20407;-73
2024/02/21 08:02:10;;;;;;;11.07;6.65;;;;;;;7.82;78.81;100720.56;5057987;28;20044;-66
2024/02/21 08:04:37;;;;;;;11.20;6.05;;;;;;;8.56;78.59;100722.56;5072149;28;20052;-67
2024/02/21 08:07:04;;;;;;;11.63;7.63;;;;;;;8.50;79.65;100722.47;5058738;28;20390;-70
2024/02/21 08:09:31;;;;;;;11.63;7.38;;;;;;;8.79;77.90;100725.50;5060220;28;20039;-67
2024/02/21 08:12:42;;;;;;;9.18;6.35;;;;;;;9.28;78.65;100724.34;5067030;28;20063;-68
2024/02/21 08:16:03;;;;;;;10.10;7.05;;;;;;;9.95;77.14;100690.34;5057673;28;20047;-68
2024/02/21 08:18:27;;;;;;;9.98;7.40;;;;;;;10.45;79.06;100721.94;5042867;28;20056;-67
2024/02/21 08:21:21;;;;;;;11.13;7.18;;;;;;;12.31;82.85;100711.97;5059748;28;20480;-67
2024/02/21 08:23:54;;;;;;;11.35;7.68;;;;;;;13.21;77.92;100702.97;5039753;28;20040;-66
2024/02/21 08:26:20;;;;;;;11.40;7.68;;;;;;;13.38;73.67;100695.03;5072052;28;20881;-68
2024/02/21 08:28:50;;;;;;;10.50;7.57;;;;;;;13.11;78.14;100673.41;5056906;28;20040;-68
2024/02/21 08:31:20;;;;;;;11.23;7.70;;;;;;;13.70;71.06;100699.22;5054927;28;20039;-67
2024/02/21 08:34:01;;;;;;;11.95;8.85;;;;;;;14.11;72.95;100692.75;5043048;28;20405;-68
2024/02/21 08:37:04;;;;;;;10.63;8.10;;;;;;;13.64;68.23;100694.00;5062686;28;20044;-67
2024/02/21 08:39:28;;;;;;;11.57;7.90;;;;;;;13.26;67.22;100691.63;5044234;28;20044;-70
2024/02/21 08:41:54;;;;;;;12.18;8.50;;;;;;;11.57;67.28;100686.75;5059013;28;20139;-69
2024/02/21 08:44:25;;;;;;;12.70;8.68;;;;;;;10.87;68.22;100719.53;5059828;28;20052;-67
2024/02/21 08:46:53;;;;;;;11.38;8.18;;;;;;;11.47;69.38;100712.78;5062306;28;20037;-66
2024/02/21 08:49:19;;;;;;;10.20;7.53;;;;;;;12.28;70.00;100705.91;5057923;28;20044;-67
2024/02/21 08:51:48;;;;;;;10.73;7.80;;;;;;;13.08;67.21;100691.72;5060454;28;20049;-67
2024/02/21 08:54:14;;;;;;;11.63;7.55;;;;;;;13.95;64.94;100670.22;5062923;28;20048;-67
2024/02/21 08:57:23;;;;;;;;;;;;;;;;;;;;;
2024/02/21 08:59:59;;;;;;;10.18;7.70;;;;;;;14.05;63.73;100671.88;5064515;28;20045;-68
2024/02/21 09:02:26;;;;;;;11.88;7.57;;;;;;;13.23;60.21;100707.31;5062946;28;20144;-66
2024/02/21 09:04:52;;;;;;;10.00;7.90;;;;;;;12.25;62.04;100703.28;5063984;28;20166;-70
2024/02/21 09:07:41;;;;;;;9.90;7.80;;;;;;;10.60;57.76;100678.63;5074640;28;20063;-67
2024/02/21 09:10:24;;;;;;;11.25;8.00;;;;;;;9.31;59.61;100695.81;5059573;28;20510;-66
2024/02/21 09:12:54;;;;;;;11.55;8.07;;;;;;;8.61;61.02;100700.16;5063211;28;20036;-65
2024/02/21 09:15:32;;;;;;;12.10;7.88;;;;;;;7.44;60.06;100702.59;5060675;28;20045;-67
2024/02/21 09:18:32;;;;;;;12.50;7.65;;;;;;;6.46;62.76;100694.59;5073997;28;20064;-65
2024/02/21 09:20:58;;;;;;;10.93;7.20;;;;;;;6.12;62.42;100717.06;5076050;28;20040;-66
2024/02/21 09:23:24;;;;;;;11.30;7.32;;;;;;;5.38;62.72;100721.22;5047083;28;20047;-65
2024/02/21 09:25:50;;;;;;;11.48;7.82;;;;;;;4.91;63.08;100714.75;5059293;28;20050;-67
2024/02/21 09:28:17;;;;;;;10.90;7.10;;;;;;;4.94;64.11;100708.84;5062726;28;20040;-72
2024/02/21 09:30:43;;;;;;;13.80;7.80;;;;;;;4.85;64.48;100713.72;5076330;28;20071;-65
2024/02/21 09:33:09;;;;;;;11.95;6.40;;;;;;;4.24;64.97;100695.56;5075740;28;20044;-64
2024/02/21 09:35:35;;;;;;;12.02;7.10;;;;;;;4.00;65.47;100691.41;5046183;28;20041;-66
2024/02/21 09:38:02;;;;;;;10.45;6.63;;;;;;;3.55;65.58;100682.19;5063307;28;20138;-65
2024/02/21 09:40:29;;;;;;;10.93;6.75;;;;;;;3.53;66.59;100689.88;5045587;28;20047;-66
2024/02/21 09:43:12;;;;;;;12.63;7.15;;;;;;;2.93;65.93;100693.78;5056874;28;20511;-68
2024/02/21 09:45:47;;;;;;;12.65;7.93;;;;;;;2.65;66.38;100682.47;5064627;28;20041;-68
2024/02/21 09:48:44;;;;;;;18.42;9.55;;;;;;;2.58;67.21;100707.91;5062647;28;20075;-66
2024/02/21 09:51:32;;;;;;;9.93;6.13;;;;;;;2.66;67.36;100717.63;5059235;28;20076;-67
2024/02/21 09:54:00;;;;;;;18.58;9.00;;;;;;;2.02;67.05;100703.13;5058809;28;20056;-65
2024/02/21 09:57:22;;;;;;;13.10;7.65;;;;;;;1.75;67.46;100706.34;5047897;28;20044;-65
2024/02/21 09:59:59;;;;;;;13.55;6.55;;;;;;;1.46;68.08;100716.25;5043479;28;20127;-65
2024/02/21 10:03:07;;;;;;;10.63;6.38;;;;;;;1.11;68.27;100715.59;5065120;28;20082;-66
2024/02/21 10:05:37;;;;;;;10.52;6.40;;;;;;;0.71;68.00;100681.38;5078190;28;20135;-72
2024/02/21 10:08:06;;;;;;;12.30;6.55;;;;;;;0.63;68.81;100705.75;5064940;28;20126;-65
2024/02/21 10:10:46;;;;;;;9.50;5.97;;;;;;;0.78;69.49;100696.22;5065025;28;20139;-67
2024/02/21 10:13:25;;;;;;;9.73;5.75;;;;;;;0.66;69.42;100662.34;5067491;28;20051;-66
2024/02/21 10:16:08;;;;;;;12.27;7.05;;;;;;;0.76;70.20;100677.34;5081357;28;20140;-66
2024/02/21 10:18:38;;;;;;;9.98;6.05;;;;;;;0.60;69.86;100668.94;5059841;28;20078;-66
2024/02/21 10:21:08;;;;;;;11.00;6.22;;;;;;;0.70;69.50;100689.88;5058847;28;20056;-67
2024/02/21 10:24:13;;;;;;;15.10;6.78;;;;;;;0.50;69.97;100674.47;5063525;28;20052;-66
2024/02/21 10:27:03;;;;;;;8.95;5.45;;;;;;;0.60;70.20;100674.06;5055279;28;20468;-67
2024/02/21 10:29:32;;;;;;;11.63;6.25;;;;;;;0.55;71.12;100696.03;5045611;28;20049;-69
2024/02/21 10:32:28;;;;;;;11.05;6.40;;;;;;;0.53;71.36;100686.53;5043145;28;20054;-65
2024/02/21 10:35:08;;;;;;;10.75;6.00;;;;;;;0.42;70.89;100683.47;5057181;28;20040;-67
2024/02/21 10:37:36;;;;;;;9.20;5.60;;;;;;;0.25;70.52;100685.25;5030009;28;20037;-66
2024/02/21 10:40:05;;;;;;;11.20;6.20;;;;;;;0.02;70.94;100667.09;5064674;28;20063;-67
2024/02/21 10:42:35;;;;;;;11.52;6.10;;;;;;;-0.06;70.84;100674.44;5064644;28;20036;-67
2024/02/21 10:45:04;;;;;;;12.10;6.30;;;;;;;-0.68;70.26;100620.28;5063970;28;20044;-67
2024/02/21 10:47:37;;;;;;;10.60;6.40;;;;;;;-0.23;70.94;100699.22;5058723;28;20070;-65
2024/02/21 10:50:11;;;;;;;10.93;5.53;;;;;;;-0.38;71.54;100635.38;5059222;28;20048;-66
2024/02/21 10:52:58;;;;;;;10.50;5.57;;;;;;;-0.39;71.12;100636.19;5059875;28;20611;-66
2024/02/21 10:55:47;;;;;;;9.82;5.53;;;;;;;-0.64;71.54;100606.84;5079104;28;20040;-67
2024/02/21 10:58:14;;;;;;;10.85;6.07;;;;;;;-0.48;71.46;100662.19;5062833;28;20036;-67
2024/02/21 11:00:40;;;;;;;12.93;6.40;;;;;;;-0.38;71.79;100701.00;5059375;28;20045;-66
2024/02/21 11:03:07;;;;;;;10.60;6.35;;;;;;;-0.55;72.10;100670.34;5047363;28;20139;-65
2024/02/21 11:05:34;;;;;;;11.38;6.47;;;;;;;-0.53;71.45;100690.88;5040331;28;20048;-68
2024/02/21 11:08:00;;;;;;;9.85;5.93;;;;;;;-0.48;72.35;100681.75;5058278;28;20040;-70
2024/02/21 11:10:26;;;;;;;12.00;5.95;;;;;;;-0.47;72.31;100668.16;5059845;28;20051;-65
2024/02/21 11:13:09;;;;;;;8.70;5.72;;;;;;;-0.44;71.51;100685.38;5062583;28;20067;-66
2024/02/21 11:15:35;;;;;;;13.23;6.55;;;;;;;-0.39;72.64;100684.78;5058841;28;20040;-66
2024/02/21 11:18:02;;;;;;;10.10;6.20;;;;;;;-0.50;72.11;100685.91;5047789;28;20040;-67
2024/02/21 11:20:35;;;;;;;10.10;6.10;;;;;;;-0.55;72.15;100693.34;5063049;28;20048;-65
2024/02/21 11:23:02;;;;;;;10.82;6.30;;;;;;;-0.76;72.50;100668.47;5061996;28;20052;-66
2024/02/21 11:25:33;;;;;;;14.52;6.93;;;;;;;-0.85;72.66;100656.91;5063676;28;20123;-65
2024/02/21 11:28:01;;;;;;;10.48;5.85;;;;;;;-0.98;72.13;100665.59;5062510;28;20037;-66
2024/02/21 11:30:32;;;;;;;11.80;6.63;;;;;;;-1.01;73.04;100683.31;5047754;28;20064;-69